Portada
METAR-TAF:

METAR-TAF

Aeropuertos :

Aeropuerto de Melilla

Melilla, España

latitud: 35-17N, longitud: 002-57W, altitud: 47 m

Observación

El informe se hizo hace 37 minutos, a las 14:00 UTC
Viento 11 kt del oeste con ráfagas de 21 kt, variando entre sur-suroeste y noroeste
Temperatura 22°C
Humedad 46%
Presión 1012 hPa
Visibilidad 10 km o más
sin nubes por debajo de 1500 m y sin presencia de cumulonimbus.

METAR: GEML 191400Z 28011G21KT 200V320 CAVOK 22/10 Q1012

Hora: 16:37 (14:37 UTC)

Pronóstico

El informe se hizo hace 6 horas y 37 minutos, a las 08:00 UTC
Pronóstico válido del 19 a las 09 UTC al 20 a las 09 UTC
Viento 13 kt del oeste
Visibilidad 10 km o más
sin nubes por debajo de 1500 m y sin presencia de cumulonimbus.
Temporalmente
del 19 a las 09 UTC al 19 a las 18 UTC
Viento 18 kt del oeste con ráfagas de 28 kt

TAF: GEML 190800Z 1909/2009 27013KT CAVOK TX22/1913Z TN17/2006Z TEMPO 1909/1918 27018G28KT

Observaciones y pronósticos meteorológicos de más de 4000 aeropuertos (mensajes METAR y TAF).

Los puntos amarillos y rojos representan las estaciones disponibles.

Ponga el ratón en el punto deseado para ver el nombre de la estación.

Haga clic para ver las observaciones y los pronósticos meteorológicos.

Para cambiar el mapa : haga clic en los botones verdes con una cruz de color negro para hacer un zoom, en el botón verde con un guión para alejar o en las flechas verdes para mapas adyacentes.


METAR-TAF: